Time;durP1;ratioP1;P1;durP2;ratioP2;P2;SDS_P1;SDS_P2;PMS_P1;PMS_P2;Temp;Humidity;BMP_temperature;BMP_pressure;BME280_temperature;BME280_humidity;BME280_pressure;Samples;Min_cycle;Max_cycle;Signal;HPM_P1;HPM_P2
2022/12/02 00:02:20;;;;;;;16.87;13.20;;;;;;;7.41;100.00;99830.94;5112595;28;20194;-56
2022/12/02 00:04:52;;;;;;;17.40;13.53;;;;;;;7.42;100.00;99835.25;5112388;28;20202;-55
2022/12/02 00:07:21;;;;;;;14.93;12.10;;;;;;;7.47;100.00;99826.56;5112454;28;20693;-56
2022/12/02 00:09:48;;;;;;;18.50;13.00;;;;;;;7.43;100.00;99824.03;5112088;28;20616;-56
2022/12/02 00:12:20;;;;;;;15.27;13.27;;;;;;;7.41;100.00;99821.47;5112471;28;20214;-57
2022/12/02 00:14:54;;;;;;;15.33;13.07;;;;;;;7.50;100.00;99828.25;5112141;28;20281;-56
2022/12/02 00:17:20;;;;;;;14.93;12.33;;;;;;;7.49;100.00;99826.53;5111523;28;20696;-56
2022/12/02 00:19:47;;;;;;;19.80;13.17;;;;;;;7.50;100.00;99823.09;5111891;28;20222;-56
2022/12/02 00:22:14;;;;;;;14.87;12.07;;;;;;;7.49;100.00;99826.53;5112083;28;20208;-59
2022/12/02 00:24:42;;;;;;;16.87;12.93;;;;;;;7.58;100.00;99826.44;5112368;28;20234;-60
2022/12/02 00:27:09;;;;;;;17.97;13.50;;;;;;;7.56;100.00;99826.44;5112263;28;20198;-59
2022/12/02 00:29:36;;;;;;;17.20;13.13;;;;;;;7.47;100.00;99825.69;5111682;27;20222;-59
2022/12/02 00:32:04;;;;;;;14.43;12.40;;;;;;;7.50;100.00;99833.44;5111934;28;20190;-59
2022/12/02 00:34:30;;;;;;;18.70;12.90;;;;;;;7.51;100.00;99832.56;5111804;28;20591;-60
2022/12/02 00:36:57;;;;;;;17.03;12.90;;;;;;;7.54;100.00;99827.38;5111798;28;20195;-59
2022/12/02 00:39:24;;;;;;;21.97;12.30;;;;;;;7.46;100.00;99829.16;5111682;28;20191;-59
2022/12/02 00:41:52;;;;;;;17.23;11.93;;;;;;;7.56;100.00;99830.78;5111898;27;20708;-56
2022/12/02 00:47:04;;;;;;;16.87;12.50;;;;;;;7.55;100.00;99823.91;5111557;28;20256;-55
2022/12/02 00:49:31;;;;;;;16.93;12.53;;;;;;;7.52;100.00;99829.09;5111330;28;20198;-55
2022/12/02 00:51:58;;;;;;;15.87;12.80;;;;;;;7.48;100.00;99827.41;5111766;28;20199;-57
2022/12/02 00:54:24;;;;;;;15.43;12.60;;;;;;;7.41;100.00;99820.63;5111322;28;20197;-57
2022/12/02 00:56:53;;;;;;;17.30;12.40;;;;;;;7.42;100.00;99824.91;5110605;28;20199;-56
2022/12/02 00:59:20;;;;;;;13.57;11.53;;;;;;;7.37;100.00;99824.09;5111379;28;20205;-60
2022/12/02 01:01:47;;;;;;;17.13;12.80;;;;;;;7.48;100.00;99827.41;5111011;28;20590;-56
2022/12/02 01:04:14;;;;;;;18.00;13.10;;;;;;;7.54;100.00;99822.19;5111622;28;20203;-56
2022/12/02 01:06:41;;;;;;;17.70;12.67;;;;;;;7.55;100.00;99816.16;5111100;28;20205;-57
2022/12/02 01:09:07;;;;;;;15.43;12.73;;;;;;;7.47;100.00;99816.22;5111422;28;20694;-55
2022/12/02 01:11:34;;;;;;;17.67;13.50;;;;;;;7.50;100.00;99830.84;5111090;28;20217;-55
2022/12/02 01:14:03;;;;;;;18.73;12.67;;;;;;;7.42;100.00;99801.69;5111068;28;20199;-60
2022/12/02 01:16:30;;;;;;;16.60;12.23;;;;;;;7.47;100.00;99820.53;5110873;27;20198;-60
2022/12/02 01:18:57;;;;;;;18.00;12.70;;;;;;;7.31;100.00;99801.78;5110948;28;20261;-60
2022/12/02 01:21:23;;;;;;;20.23;13.60;;;;;;;7.40;100.00;99821.50;5111137;28;20273;-60
2022/12/02 01:23:50;;;;;;;18.43;14.23;;;;;;;7.35;100.00;99815.50;5110877;28;20285;-59
2022/12/02 01:26:17;;;;;;;17.93;13.07;;;;;;;7.32;100.00;99805.22;5110986;28;20268;-59
2022/12/02 01:28:44;;;;;;;23.20;14.57;;;;;;;7.17;100.00;99796.78;5110790;28;20199;-59
2022/12/02 01:31:13;;;;;;;20.83;15.07;;;;;;;7.39;100.00;99814.59;5111202;27;20222;-59
2022/12/02 01:33:40;;;;;;;22.83;14.27;;;;;;;7.36;100.00;99812.91;5110823;28;20271;-59
2022/12/02 01:36:08;;;;;;;21.93;14.83;;;;;;;7.39;100.00;99812.03;5110869;28;20193;-59
2022/12/02 01:38:35;;;;;;;21.67;14.87;;;;;;;7.43;100.00;99812.00;5110579;28;20191;-59
2022/12/02 01:41:02;;;;;;;26.40;15.10;;;;;;;7.49;100.00;99814.50;5110713;28;20197;-59
2022/12/02 01:43:29;;;;;;;25.73;15.87;;;;;;;7.35;100.00;99818.09;5110328;28;20191;-59
2022/12/02 01:45:57;;;;;;;21.93;15.13;;;;;;;7.39;100.00;99812.03;5110632;28;20586;-59
2022/12/02 01:48:25;;;;;;;22.20;14.00;;;;;;;7.29;100.00;99786.31;5110497;28;20190;-59
2022/12/02 01:50:52;;;;;;;23.37;15.83;;;;;;;7.34;100.00;99806.91;5109749;28;20228;-60
2022/12/02 01:53:19;;;;;;;20.87;13.93;;;;;;;7.25;100.00;99800.13;5110196;28;20584;-60
2022/12/02 01:55:46;;;;;;;19.03;13.73;;;;;;;7.36;100.00;99796.56;5110120;28;20209;-59
2022/12/02 01:58:14;;;;;;;21.73;14.20;;;;;;;7.47;100.00;99803.31;5109969;28;20194;-60
2022/12/02 02:00:41;;;;;;;21.77;14.53;;;;;;;7.35;100.00;99789.69;5110177;28;20283;-60
2022/12/02 02:03:08;;;;;;;21.30;13.60;;;;;;;7.35;100.00;99794.84;5110333;28;20205;-59
2022/12/02 02:05:37;;;;;;;19.77;12.87;;;;;;;7.29;100.00;99794.06;5110019;28;20204;-60
2022/12/02 02:08:06;;;;;;;19.07;13.57;;;;;;;7.46;100.00;99793.84;5110162;28;20205;-60
2022/12/02 02:10:34;;;;;;;17.77;12.83;;;;;;;7.45;100.00;99789.56;5109909;28;20222;-60
2022/12/02 02:13:02;;;;;;;17.20;12.70;;;;;;;7.49;100.00;99792.97;5110005;28;20198;-59
2022/12/02 02:15:29;;;;;;;20.30;12.87;;;;;;;7.43;100.00;99777.56;5109860;28;20201;-59
2022/12/02 02:17:57;;;;;;;16.97;12.80;;;;;;;7.51;100.00;99788.66;5109914;28;20273;-60
2022/12/02 02:20:26;;;;;;;19.63;13.90;;;;;;;7.45;100.00;99770.66;5109793;28;20222;-59
2022/12/02 02:23:01;;;;;;;21.30;13.30;;;;;;;7.56;100.00;99789.47;5109836;28;20193;-59
2022/12/02 02:25:29;;;;;;;19.43;13.93;;;;;;;7.53;100.00;99789.50;5109938;28;20205;-58
2022/12/02 02:27:59;;;;;;;15.70;12.10;;;;;;;7.59;100.00;99787.66;5109883;28;20194;-59
2022/12/02 02:30:28;;;;;;;17.70;12.03;;;;;;;7.62;100.00;99794.53;5109769;28;20218;-59
2022/12/02 02:32:56;;;;;;;19.27;13.30;;;;;;;7.41;100.00;99784.47;5109882;28;20276;-56
2022/12/02 02:35:23;;;;;;;20.30;13.03;;;;;;;7.45;100.00;99802.47;5109937;28;20682;-59
2022/12/02 02:37:52;;;;;;;21.60;13.23;;;;;;;7.28;100.00;99799.25;5109966;28;20194;-60
2022/12/02 02:40:21;;;;;;;19.23;12.90;;;;;;;7.42;100.00;99804.25;5109637;28;20190;-59
2022/12/02 02:42:52;;;;;;;19.97;13.43;;;;;;;7.37;100.00;99798.28;5109796;28;20689;-59
2022/12/02 02:45:20;;;;;;;19.27;13.03;;;;;;;7.28;100.00;99800.09;5109794;28;20285;-59
2022/12/02 02:47:48;;;;;;;16.80;12.53;;;;;;;7.20;100.00;99801.06;5109561;28;20203;-58
2022/12/02 02:50:15;;;;;;;21.77;13.47;;;;;;;7.08;100.00;99804.63;5109366;28;20237;-59
2022/12/02 02:52:42;;;;;;;18.93;12.83;;;;;;;7.25;100.00;99799.25;5109483;28;20199;-59
2022/12/02 02:55:15;;;;;;;17.73;13.50;;;;;;;7.09;100.00;99801.16;5109605;28;20204;-59
2022/12/02 02:57:42;;;;;;;21.67;14.27;;;;;;;7.14;100.00;99799.38;5109403;28;20195;-59
2022/12/02 03:00:12;;;;;;;19.10;13.37;;;;;;;7.32;100.00;99802.66;5109625;28;20190;-59
2022/12/02 03:02:39;;;;;;;20.67;12.93;;;;;;;7.33;100.00;99814.69;5109245;28;20204;-59
2022/12/02 03:05:07;;;;;;;18.57;12.77;;;;;;;7.25;100.00;99807.88;5109535;28;20197;-58
2022/12/02 03:07:35;;;;;;;18.90;13.40;;;;;;;7.25;100.00;99807.00;5109301;28;20202;-58
2022/12/02 03:10:02;;;;;;;20.37;13.63;;;;;;;7.16;100.00;99805.38;5109479;28;20670;-56
2022/12/02 03:12:29;;;;;;;19.27;14.00;;;;;;;7.24;100.00;99803.56;5109324;28;20194;-60
2022/12/02 03:14:57;;;;;;;20.77;14.07;;;;;;;7.37;100.00;99803.44;5109365;28;20203;-59
2022/12/02 03:17:25;;;;;;;19.03;13.10;;;;;;;7.53;100.00;99805.00;5109355;28;20199;-59
2022/12/02 03:19:52;;;;;;;16.03;12.67;;;;;;;7.44;100.00;99810.25;5109412;28;20249;-59
2022/12/02 03:22:19;;;;;;;21.33;14.03;;;;;;;7.39;100.00;99812.03;5109341;28;20197;-59
2022/12/02 03:24:46;;;;;;;20.53;13.53;;;;;;;7.51;100.00;99806.72;5109440;28;20689;-58
2022/12/02 03:27:14;;;;;;;21.93;14.53;;;;;;;7.58;100.00;99813.53;5109654;28;20195;-58
2022/12/02 03:29:42;;;;;;;20.40;13.33;;;;;;;7.51;100.00;99804.16;5109054;28;20198;-58
2022/12/02 03:32:09;;;;;;;20.93;14.10;;;;;;;7.47;100.00;99815.38;5109200;28;20225;-59
2022/12/02 03:34:39;;;;;;;21.00;14.07;;;;;;;7.56;100.00;99823.03;5109172;28;20195;-59
2022/12/02 03:37:06;;;;;;;19.87;14.00;;;;;;;7.50;100.00;99820.50;5109200;28;20200;-59
2022/12/02 03:39:33;;;;;;;20.53;14.07;;;;;;;7.49;100.00;99817.06;5108361;28;20195;-59
2022/12/02 03:42:00;;;;;;;21.70;15.03;;;;;;;7.57;100.00;99815.25;5109131;28;20198;-59
2022/12/02 03:44:27;;;;;;;22.63;15.23;;;;;;;7.56;100.00;99810.94;5109117;28;20289;-59
2022/12/02 03:46:54;;;;;;;23.43;14.93;;;;;;;7.49;100.00;99818.78;5109143;28;20201;-59
2022/12/02 03:49:21;;;;;;;21.03;14.63;;;;;;;7.59;100.00;99822.97;5109287;28;20194;-59
2022/12/02 03:51:50;;;;;;;21.70;15.03;;;;;;;7.53;100.00;99831.66;5110604;28;20222;-60
2022/12/02 03:54:17;;;;;;;22.77;15.03;;;;;;;7.53;100.00;99833.41;5112722;28;20230;-59
2022/12/02 03:56:44;;;;;;;22.07;14.33;;;;;;;7.56;100.00;99836.78;5112453;28;20191;-59
2022/12/02 03:59:19;;;;;;;21.97;15.10;;;;;;;7.50;100.00;99839.44;5112536;28;20742;-59
2022/12/02 04:01:46;;;;;;;21.90;15.33;;;;;;;7.56;100.00;99838.53;5112262;28;20197;-59
2022/12/02 04:04:13;;;;;;;22.83;14.63;;;;;;;7.46;100.00;99837.75;5112704;28;20205;-59
2022/12/02 04:06:40;;;;;;;20.80;15.20;;;;;;;7.57;100.00;99840.22;5112415;28;20207;-59
2022/12/02 04:09:09;;;;;;;21.00;16.00;;;;;;;7.56;100.00;99844.53;5112706;28;20195;-59
2022/12/02 04:11:36;;;;;;;21.10;14.60;;;;;;;7.60;100.00;99842.78;5111140;28;20218;-54
2022/12/02 04:14:03;;;;;;;18.77;13.97;;;;;;;7.49;100.00;99842.91;5091913;28;20206;-54
2022/12/02 04:16:29;;;;;;;23.77;14.37;;;;;;;7.50;100.00;99843.75;5101728;28;20590;-54
2022/12/02 04:18:56;;;;;;;20.93;14.40;;;;;;;7.62;100.00;99849.63;5105502;28;20300;-61
2022/12/02 04:21:24;;;;;;;24.30;14.73;;;;;;;7.54;100.00;99848.88;5103895;28;20224;-62
2022/12/02 04:23:51;;;;;;;18.63;13.57;;;;;;;7.47;100.00;99852.38;5098433;28;20303;-61
2022/12/02 04:26:20;;;;;;;20.77;14.13;;;;;;;7.55;100.00;99849.75;5108102;28;20245;-62
2022/12/02 04:28:47;;;;;;;18.90;14.10;;;;;;;7.60;100.00;99851.38;5100934;28;20620;-64
2022/12/02 04:31:14;;;;;;;21.77;15.07;;;;;;;7.62;100.00;99853.94;5105248;28;20631;-64
2022/12/02 04:33:41;;;;;;;22.27;14.43;;;;;;;7.64;100.00;99855.66;5090989;28;20223;-64
2022/12/02 04:36:08;;;;;;;21.70;14.60;;;;;;;7.65;100.00;99862.53;5090990;28;20218;-63
2022/12/02 04:38:35;;;;;;;23.90;15.10;;;;;;;7.72;100.00;99863.31;5099197;28;20218;-60
2022/12/02 04:41:02;;;;;;;21.73;14.73;;;;;;;7.73;100.00;99870.19;5109879;27;20226;-61
2022/12/02 04:43:30;;;;;;;21.27;15.10;;;;;;;7.70;100.00;99861.59;5109575;28;20226;-60
2022/12/02 04:45:57;;;;;;;22.33;14.23;;;;;;;7.69;100.00;99860.75;5109245;28;20264;-61
2022/12/02 04:48:24;;;;;;;20.83;13.97;;;;;;;7.71;100.00;99869.34;5109202;28;20220;-61
2022/12/02 04:50:51;;;;;;;24.00;16.33;;;;;;;7.75;100.00;99867.59;5110284;28;20268;-56
2022/12/02 04:53:18;;;;;;;26.03;15.20;;;;;;;7.70;100.00;99869.34;5110503;28;20213;-56
2022/12/02 04:55:45;;;;;;;22.60;15.30;;;;;;;7.66;100.00;99873.72;5111413;28;20589;-56
2022/12/02 04:58:12;;;;;;;26.53;15.23;;;;;;;7.58;100.00;99873.78;5111158;28;20259;-56
2022/12/02 05:00:41;;;;;;;23.23;15.73;;;;;;;7.62;100.00;99883.22;5111176;28;20281;-56
2022/12/02 05:03:07;;;;;;;23.80;15.80;;;;;;;7.69;100.00;99891.75;5110896;28;20194;-56
2022/12/02 05:05:34;;;;;;;29.60;17.23;;;;;;;7.67;100.00;99888.34;5111176;28;20209;-56
2022/12/02 05:08:01;;;;;;;26.17;16.10;;;;;;;7.69;100.00;99894.34;5111258;28;20342;-56
2022/12/02 05:10:28;;;;;;;26.83;16.67;;;;;;;7.73;100.00;99901.19;5111103;28;20199;-56
2022/12/02 05:12:55;;;;;;;26.50;15.67;;;;;;;7.77;100.00;99892.53;5111242;28;20198;-56
2022/12/02 05:15:22;;;;;;;27.87;17.13;;;;;;;7.75;100.00;99904.63;5110371;28;20201;-59
2022/12/02 05:17:50;;;;;;;27.20;16.43;;;;;;;7.74;100.00;99902.03;5110586;28;20199;-59
2022/12/02 05:20:18;;;;;;;32.23;16.60;;;;;;;7.84;100.00;99896.75;5110518;28;20640;-58
2022/12/02 05:22:44;;;;;;;26.77;15.20;;;;;;;7.83;100.00;99902.78;5110229;28;20195;-57
2022/12/02 05:25:11;;;;;;;27.23;16.03;;;;;;;7.91;100.00;99893.22;5110693;28;20272;-58
2022/12/02 05:27:38;;;;;;;31.57;15.90;;;;;;;7.96;100.00;99891.44;5110746;27;20205;-58
2022/12/02 05:30:07;;;;;;;26.20;16.37;;;;;;;7.90;100.00;99895.84;5111380;28;20213;-58
2022/12/02 05:32:33;;;;;;;28.93;16.13;;;;;;;7.88;100.00;99895.84;5110584;28;20222;-58
2022/12/02 05:35:02;;;;;;;26.20;15.13;;;;;;;7.90;100.00;99896.66;5110791;28;20198;-59
2022/12/02 05:37:29;;;;;;;29.20;15.63;;;;;;;7.94;100.00;99900.09;5110268;28;20202;-59
2022/12/02 05:39:56;;;;;;;24.70;15.07;;;;;;;7.95;100.00;99900.06;5110474;28;20242;-58
2022/12/02 05:42:23;;;;;;;25.50;16.10;;;;;;;7.89;100.00;99886.38;5110488;28;20190;-58
2022/12/02 05:44:49;;;;;;;22.37;15.20;;;;;;;7.91;100.00;99894.94;5110214;28;20285;-58
2022/12/02 05:47:18;;;;;;;25.23;15.23;;;;;;;7.95;100.00;99899.22;5110203;28;20286;-59
2022/12/02 05:49:46;;;;;;;27.23;15.13;;;;;;;7.94;100.00;99903.53;5110032;28;20281;-58
2022/12/02 05:52:23;;;;;;;24.73;14.77;;;;;;;8.00;100.00;99900.88;5089864;28;20229;-57
2022/12/02 05:54:52;;;;;;;25.27;15.33;;;;;;;8.03;100.00;99910.31;5089864;28;20206;-58
2022/12/02 05:57:24;;;;;;;25.20;15.27;;;;;;;8.13;100.00;99905.88;5089521;28;20191;-58
2022/12/02 05:59:55;;;;;;;27.63;15.83;;;;;;;8.13;100.00;99901.56;5089518;28;20701;-58
2022/12/02 06:02:29;;;;;;;29.03;15.03;;;;;;;8.09;100.00;99912.81;5107248;28;20590;-58
2022/12/02 06:04:56;;;;;;;24.17;15.37;;;;;;;8.07;100.00;99911.13;5109235;28;20195;-55
2022/12/02 06:07:24;;;;;;;24.93;14.57;;;;;;;8.07;100.00;99908.53;5105519;27;20223;-55
2022/12/02 06:09:53;;;;;;;26.77;15.83;;;;;;;8.06;100.00;99915.44;5108473;28;20218;-55
2022/12/02 06:12:21;;;;;;;25.07;14.97;;;;;;;8.08;100.00;99918.00;5108393;27;20239;-55
2022/12/02 06:14:53;;;;;;;28.33;16.60;;;;;;;8.17;100.00;99925.66;5107933;28;20783;-55
2022/12/02 06:17:20;;;;;;;24.83;15.53;;;;;;;8.22;100.00;99922.16;5108686;27;20275;-55
2022/12/02 06:19:52;;;;;;;22.83;15.10;;;;;;;8.26;100.00;99917.78;5107455;28;20236;-54
2022/12/02 06:22:22;;;;;;;27.73;15.47;;;;;;;8.27;100.00;99924.66;5108390;27;20698;-55
2022/12/02 06:24:51;;;;;;;26.17;16.23;;;;;;;8.20;100.00;99923.03;5108077;28;20226;-54
2022/12/02 06:27:19;;;;;;;24.33;15.47;;;;;;;8.31;100.00;99926.34;5108346;28;20226;-54
2022/12/02 06:29:50;;;;;;;27.67;15.73;;;;;;;8.24;100.00;99924.72;5106787;28;20222;-55
2022/12/02 06:32:20;;;;;;;25.13;15.07;;;;;;;8.18;100.00;99925.63;5108312;28;20288;-54
2022/12/02 06:34:49;;;;;;;23.97;13.97;;;;;;;8.12;100.00;99930.91;5108130;28;20248;-55
2022/12/02 06:37:20;;;;;;;26.13;16.23;;;;;;;8.15;100.00;99933.41;5107770;28;20194;-55
2022/12/02 06:39:49;;;;;;;23.73;14.20;;;;;;;8.23;100.00;99934.19;5108148;28;20191;-55
2022/12/02 06:42:24;;;;;;;26.80;14.43;;;;;;;8.16;100.00;99942.03;5105968;28;20183;-52
2022/12/02 06:45:08;;;;;;;25.37;15.20;;;;;;;8.22;100.00;99941.97;5108227;28;20586;-56
2022/12/02 06:47:50;;;;;;;25.70;15.13;;;;;;;8.22;100.00;99937.66;5105466;28;20194;-53
2022/12/02 06:50:31;;;;;;;31.73;19.00;;;;;;;8.13;100.00;99905.88;5105503;28;20289;-53
2022/12/02 06:53:10;;;;;;;40.93;22.60;;;;;;;8.31;100.00;99947.03;5109261;28;20225;-52
2022/12/02 06:55:38;;;;;;;31.87;19.40;;;;;;;8.28;100.00;99942.75;5109266;28;20194;-52
2022/12/02 06:58:29;;;;;;;26.77;16.13;;;;;;;8.28;100.00;99952.22;5109436;28;20674;-53
2022/12/02 07:01:09;;;;;;;23.63;15.47;;;;;;;8.27;100.00;99951.38;5109368;28;20285;-53
2022/12/02 07:03:41;;;;;;;25.23;14.37;;;;;;;8.29;100.00;99953.94;5109539;28;20682;-57
2022/12/02 07:06:14;;;;;;;26.30;14.73;;;;;;;8.40;100.00;99952.09;5109098;28;20205;-56
2022/12/02 07:08:41;;;;;;;24.40;14.83;;;;;;;8.38;100.00;99959.03;5107254;28;20190;-56
2022/12/02 07:11:48;;;;;;;26.27;13.90;;;;;;;8.51;100.00;99952.81;5102216;28;20233;-56
2022/12/02 07:14:25;;;;;;;21.70;14.03;;;;;;;8.57;100.00;99963.09;5107776;27;20610;-56
2022/12/02 07:16:54;;;;;;;28.20;14.47;;;;;;;8.41;100.00;99953.81;5105864;28;20246;-54
2022/12/02 07:19:23;;;;;;;22.30;14.07;;;;;;;8.57;100.00;99965.69;5107294;28;20234;-54
2022/12/02 07:21:51;;;;;;;25.23;14.40;;;;;;;8.50;100.00;99947.66;5104964;28;20218;-54
2022/12/02 07:24:20;;;;;;;24.97;14.77;;;;;;;8.61;100.00;99963.91;5107781;28;20225;-54
2022/12/02 07:26:48;;;;;;;23.03;13.77;;;;;;;8.63;100.00;99975.09;5111828;28;20226;-57
2022/12/02 07:29:30;;;;;;;23.97;14.23;;;;;;;8.65;100.00;99963.84;5113679;27;20218;-55
2022/12/02 07:31:58;;;;;;;25.80;14.13;;;;;;;8.60;100.00;99950.09;5113832;28;20230;-55
2022/12/02 07:34:25;;;;;;;24.37;14.20;;;;;;;8.79;100.00;99970.56;5113388;28;20315;-56
2022/12/02 07:36:52;;;;;;;25.03;15.17;;;;;;;8.80;100.00;99972.28;5112819;28;20202;-54
2022/12/02 07:39:19;;;;;;;23.07;14.47;;;;;;;8.92;100.00;99966.91;5112852;28;20205;-54
2022/12/02 07:41:46;;;;;;;26.03;14.67;;;;;;;9.04;100.00;99972.75;5112561;28;20213;-53
2022/12/02 07:44:13;;;;;;;20.30;12.63;;;;;;;9.06;100.00;99972.72;5113131;27;20223;-53
2022/12/02 07:46:41;;;;;;;23.43;14.13;;;;;;;9.18;100.00;99967.38;5112607;28;20207;-54
2022/12/02 07:49:08;;;;;;;20.63;13.57;;;;;;;9.29;100.00;99967.19;5112605;28;20285;-57
2022/12/02 07:51:35;;;;;;;21.17;12.83;;;;;;;9.38;100.00;99972.22;5112516;28;20199;-53
2022/12/02 07:54:02;;;;;;;24.10;13.73;;;;;;;9.43;100.00;99971.28;5112539;28;20208;-54
2022/12/02 07:56:29;;;;;;;25.07;14.17;;;;;;;9.63;100.00;99968.31;5112427;28;20671;-52
2022/12/02 07:58:56;;;;;;;28.93;14.00;;;;;;;9.75;100.00;99962.91;5112241;28;20202;-53
2022/12/02 08:01:23;;;;;;;22.70;13.03;;;;;;;9.84;100.00;99967.94;5112643;28;20214;-52
2022/12/02 08:03:51;;;;;;;20.83;12.60;;;;;;;9.96;100.00;99985.00;5112025;28;20751;-53
2022/12/02 08:06:18;;;;;;;39.30;18.67;;;;;;;10.17;100.00;99983.72;5112260;28;20191;-56
2022/12/02 08:08:45;;;;;;;23.87;14.27;;;;;;;10.30;100.00;99985.22;5112160;28;20290;-56
2022/12/02 08:11:12;;;;;;;23.20;14.50;;;;;;;10.38;100.00;99985.09;5112190;28;20693;-53
2022/12/02 08:13:38;;;;;;;18.20;12.87;;;;;;;10.28;100.00;99979.22;5112414;28;20219;-57
2022/12/02 08:16:07;;;;;;;18.83;11.80;;;;;;;10.31;100.00;99992.13;5112529;28;20579;-57
2022/12/02 08:18:34;;;;;;;16.97;11.03;;;;;;;10.24;100.00;99987.97;5111251;28;20277;-56
2022/12/02 08:21:02;;;;;;;15.57;10.03;;;;;;;10.21;100.00;99992.34;5111524;28;20228;-57
2022/12/02 08:23:29;;;;;;;14.17;10.43;;;;;;;10.20;100.00;99986.31;5111546;28;20187;-56
2022/12/02 08:25:56;;;;;;;17.13;11.43;;;;;;;10.27;100.00;99987.88;5108564;28;20666;-56
2022/12/02 08:28:23;;;;;;;14.73;10.83;;;;;;;10.22;100.00;99992.31;5112086;28;20297;-57
2022/12/02 08:30:50;;;;;;;16.60;11.50;;;;;;;10.36;100.00;99986.88;5111152;28;20195;-56
2022/12/02 08:33:17;;;;;;;15.77;10.47;;;;;;;10.46;100.00;99984.03;5108925;28;20211;-57
2022/12/02 08:35:44;;;;;;;13.67;10.63;;;;;;;10.48;100.00;99987.47;5111357;28;20217;-56
2022/12/02 08:38:12;;;;;;;12.30;9.00;;;;;;;10.54;100.00;99981.28;5110751;28;20224;-56
2022/12/02 08:40:39;;;;;;;12.70;9.63;;;;;;;10.66;100.00;99991.41;5111626;28;20285;-56
2022/12/02 08:43:06;;;;;;;13.30;10.13;;;;;;;10.79;100.00;99994.59;5111633;28;20199;-56
2022/12/02 08:45:32;;;;;;;15.03;10.43;;;;;;;10.90;100.00;99996.06;5111302;28;20564;-56
2022/12/02 08:47:59;;;;;;;15.37;10.80;;;;;;;10.85;100.00;99997.88;5110088;28;20190;-56
2022/12/02 08:50:26;;;;;;;17.40;11.40;;;;;;;10.88;100.00;99997.84;5110344;28;20190;-56
2022/12/02 08:52:54;;;;;;;18.53;11.37;;;;;;;11.06;100.00;100006.94;5089841;28;20264;-54
2022/12/02 08:55:22;;;;;;;14.97;10.83;;;;;;;11.03;100.00;100006.19;5090322;28;20199;-53
2022/12/02 08:57:49;;;;;;;13.30;9.83;;;;;;;11.08;100.00;100009.50;5090740;28;20201;-54
2022/12/02 09:00:16;;;;;;;15.07;10.13;;;;;;;11.01;100.00;100005.34;5091067;28;20694;-53
2022/12/02 09:02:43;;;;;;;13.43;10.40;;;;;;;11.07;100.00;100002.59;5090493;28;20191;-53
2022/12/02 09:05:10;;;;;;;13.60;9.93;;;;;;;11.21;100.00;100004.00;5090838;28;20199;-56
2022/12/02 09:07:37;;;;;;;13.97;10.27;;;;;;;11.16;100.00;100002.41;5090854;28;20234;-57
2022/12/02 09:10:06;;;;;;;10.90;8.33;;;;;;;11.11;100.00;99999.06;5090720;28;20200;-57
2022/12/02 09:12:34;;;;;;;9.87;7.67;;;;;;;11.26;100.00;99998.69;5090745;28;20607;-61
2022/12/02 09:15:01;;;;;;;10.93;8.53;;;;;;;11.24;100.00;99996.13;5090632;28;20209;-56
2022/12/02 09:17:28;;;;;;;12.00;8.40;;;;;;;11.25;100.00;99995.25;5090957;28;20191;-56
2022/12/02 09:20:01;;;;;;;10.33;7.57;;;;;;;11.42;100.00;99992.22;5090170;28;20285;-59
2022/12/02 09:22:28;;;;;;;10.77;7.87;;;;;;;11.51;100.00;99989.38;5091642;28;20580;-58
2022/12/02 09:24:55;;;;;;;12.37;8.33;;;;;;;11.49;100.00;99990.34;5091035;28;20199;-57
2022/12/02 09:27:22;;;;;;;14.30;10.17;;;;;;;11.76;100.00;99986.19;5090627;28;20562;-57
2022/12/02 09:29:50;;;;;;;11.13;8.60;;;;;;;11.68;100.00;99988.13;5090350;28;20632;-58
2022/12/02 09:32:17;;;;;;;9.63;7.80;;;;;;;11.69;100.00;99989.84;5090578;28;20227;-56
2022/12/02 09:34:44;;;;;;;11.83;7.87;;;;;;;11.84;100.00;99987.72;5089653;28;20201;-57
2022/12/02 09:37:11;;;;;;;9.00;7.77;;;;;;;11.74;100.00;99969.78;5089904;28;20198;-57
2022/12/02 09:39:38;;;;;;;9.90;8.50;;;;;;;11.80;100.00;99980.03;5090066;28;20196;-56
2022/12/02 09:42:05;;;;;;;15.03;12.23;;;;;;;11.84;100.00;99986.88;5090077;28;20199;-52
2022/12/02 09:44:32;;;;;;;15.70;11.77;;;;;;;11.84;100.00;99979.06;5090213;28;20201;-54
2022/12/02 09:47:01;;;;;;;10.93;9.53;;;;;;;11.75;100.00;99982.75;5089775;28;20205;-52
2022/12/02 09:49:28;;;;;;;10.63;8.83;;;;;;;11.70;100.00;99986.34;5089387;28;20667;-57
2022/12/02 09:51:59;;;;;;;7.57;6.13;;;;;;;11.57;100.00;99963.25;5089983;28;20191;-57
2022/12/02 09:54:26;;;;;;;9.87;7.03;;;;;;;11.69;100.00;99987.22;5089861;28;20278;-56
2022/12/02 09:56:54;;;;;;;11.70;9.93;;;;;;;11.80;100.00;99980.03;5093249;28;20195;-54
2022/12/02 09:59:21;;;;;;;11.33;7.87;;;;;;;11.74;100.00;99974.97;5108728;28;20205;-53
2022/12/02 10:01:49;;;;;;;7.97;7.17;;;;;;;11.82;100.00;99976.50;5108524;28;20201;-53
2022/12/02 10:04:20;;;;;;;8.00;7.20;;;;;;;11.89;100.00;99969.38;5108044;28;20191;-53
2022/12/02 10:06:48;;;;;;;30.37;16.80;;;;;;;11.85;100.00;99973.81;5100303;27;20694;-54
2022/12/02 10:09:20;;;;;;;65.67;34.17;;;;;;;11.52;100.00;99969.44;5109959;28;20708;-52
2022/12/02 10:11:47;;;;;;;106.13;54.27;;;;;;;11.58;100.00;99977.09;5109588;28;20214;-52
2022/12/02 10:14:15;;;;;;;30.40;20.13;;;;;;;11.39;100.00;99968.94;5109137;28;20327;-53
2022/12/02 10:16:42;;;;;;;9.80;8.07;;;;;;;11.02;100.00;99974.16;5107252;28;20198;-53
2022/12/02 10:19:18;;;;;;;7.73;6.93;;;;;;;10.99;100.00;99976.81;5107686;28;20218;-53
2022/12/02 10:21:46;;;;;;;8.10;7.30;;;;;;;11.03;100.00;99959.41;5107496;28;20222;-54
2022/12/02 10:24:13;;;;;;;7.53;6.73;;;;;;;11.32;100.00;99972.56;5104997;27;20288;-53
2022/12/02 10:26:45;;;;;;;6.60;6.10;;;;;;;11.35;100.00;99977.69;5107043;28;20198;-54
2022/12/02 10:29:17;;;;;;;6.53;5.87;;;;;;;11.43;100.00;99965.34;5107423;28;20190;-53
2022/12/02 10:31:53;;;;;;;7.50;6.00;;;;;;;11.46;100.00;99973.06;5106250;28;20205;-52
2022/12/02 10:34:22;;;;;;;7.00;6.20;;;;;;;11.40;100.00;99965.41;5108949;28;20692;-53
2022/12/02 10:36:50;;;;;;;8.77;6.03;;;;;;;11.40;100.00;99960.22;5109397;28;20194;-53
2022/12/02 10:39:28;;;;;;;8.87;6.10;;;;;;;11.40;100.00;99962.81;5109701;28;20683;-56
2022/12/02 10:42:19;;;;;;;7.17;6.40;;;;;;;11.40;100.00;99959.38;5109299;28;20577;-56
2022/12/02 10:44:46;;;;;;;6.97;6.23;;;;;;;11.47;100.00;99966.97;5109353;28;20212;-57
2022/12/02 10:47:18;;;;;;;7.60;6.40;;;;;;;11.50;100.00;99966.06;5109742;28;20200;-57
2022/12/02 10:49:50;;;;;;;7.07;6.10;;;;;;;11.38;100.00;99959.41;5109584;28;20729;-56
2022/12/02 10:52:19;;;;;;;9.00;6.03;;;;;;;11.45;100.00;99967.91;5109488;28;20190;-56
2022/12/02 10:54:50;;;;;;;7.70;6.13;;;;;;;11.56;100.00;99960.69;5109073;28;20201;-56
2022/12/02 10:57:23;;;;;;;7.63;5.97;;;;;;;11.67;100.00;99948.25;5109264;28;20198;-56
2022/12/02 10:59:51;;;;;;;6.87;6.27;;;;;;;11.77;100.00;99959.31;5109628;28;20279;-57
2022/12/02 11:02:25;;;;;;;8.10;7.37;;;;;;;11.88;100.00;99962.47;5113668;28;20194;-58
2022/12/02 11:04:53;;;;;;;7.87;7.07;;;;;;;11.98;100.00;99956.97;5113506;28;20202;-56
2022/12/02 11:07:23;;;;;;;9.83;7.07;;;;;;;11.99;100.00;99968.22;5113807;28;20207;-57
2022/12/02 11:09:53;;;;;;;9.27;8.17;;;;;;;11.91;100.00;99958.06;5113584;28;20194;-57
2022/12/02 11:12:31;;;;;;;8.83;6.93;;;;;;;11.93;100.00;99958.00;5113013;27;20669;-55
2022/12/02 11:14:58;;;;;;;9.23;6.17;;;;;;;11.95;100.00;99956.22;5112703;28;20209;-56
2022/12/02 11:17:51;;;;;;;7.70;6.90;;;;;;;11.99;100.00;99952.63;5113298;28;20301;-57
2022/12/02 11:20:34;;;;;;;11.07;8.50;;;;;;;12.10;100.00;99958.38;5113498;28;20230;-56
2022/12/02 11:23:25;;;;;;;12.20;9.63;;;;;;;12.15;100.00;99956.53;5113085;28;20671;-56
2022/12/02 11:26:10;;;;;;;11.03;8.00;;;;;;;12.17;100.00;99957.34;5113336;28;20615;-56
2022/12/02 11:28:48;;;;;;;15.50;12.90;;;;;;;12.14;100.00;99952.22;5112611;28;20195;-58